KGAD/GAD METAR and TAF weather

Enter ICAO airport designator
Station Type Date Time Source
KGAD METAR 2022/11/26 09:18 UTC NOAA

KGAD 260918Z AUTO 00000KT 1SM -RA BR OVC002 04/04 A3015 RMK AO2 VIS 1/4V5 PNO $


Station Type Date Time Source
KGAD Decoded METAR 2022/11/26 09:18 UTC NOAA

Gadsden, Gadsden Municipal Airport, AL, United States (KGAD) 33-58N 086-05W
Nov 26, 2022 - 04:18 AM EST / 2022.11.26 0918 UTC
Wind: Calm:0
Visibility: 1 mile(s):0
Sky conditions: overcast
Weather: light rain; mist
Temperature: 39 F (4 C)
Dew Point: 39 F (4 C)
Relative Humidity: 100%
Pressure (altimeter): 30.15 in. Hg (1020 hPa)
ob: KGAD 260918Z AUTO 00000KT 1SM -RA BR OVC002 04/04 A3015 RMK AO2 VIS 1/4V5 PNO
cycle: 9

Station Type Date Time Source
KGAD TAF UTC NOAA

Error!

Example: see airport list